sensor_id;sensor_type;location;lat;lon;timestamp;temperature;humidity
32728;DHT22;55292;51.844;19.246;2022-10-16T00:01:54;11.70;99.90
32728;DHT22;55292;51.844;19.246;2022-10-16T00:06:56;11.50;99.90
32728;DHT22;55292;51.844;19.246;2022-10-16T00:11:58;11.30;99.90
32728;DHT22;55292;51.844;19.246;2022-10-16T00:17:01;11.10;99.90
32728;DHT22;55292;51.844;19.246;2022-10-16T00:22:03;11.00;99.90
32728;DHT22;55292;51.844;19.246;2022-10-16T00:27:06;10.80;99.90
32728;DHT22;55292;51.844;19.246;2022-10-16T00:32:08;10.70;99.90
32728;DHT22;55292;51.844;19.246;2022-10-16T00:37:11;10.70;99.90
32728;DHT22;55292;51.844;19.246;2022-10-16T00:42:15;10.70;99.90
32728;DHT22;55292;51.844;19.246;2022-10-16T00:52:25;10.60;99.90
32728;DHT22;55292;51.844;19.246;2022-10-16T00:57:28;10.50;99.90
32728;DHT22;55292;51.844;19.246;2022-10-16T01:02:31;10.50;99.90
32728;DHT22;55292;51.844;19.246;2022-10-16T01:28:08;10.50;99.90
32728;DHT22;55292;51.844;19.246;2022-10-16T01:43:31;10.20;99.90
32728;DHT22;55292;51.844;19.246;2022-10-16T01:48:35;10.10;99.90
32728;DHT22;55292;51.844;19.246;2022-10-16T01:53:39;10.00;99.90
32728;DHT22;55292;51.844;19.246;2022-10-16T01:58:49;10.00;99.90
32728;DHT22;55292;51.844;19.246;2022-10-16T02:03:53;10.00;99.90
32728;DHT22;55292;51.844;19.246;2022-10-16T02:08:56;10.00;99.90
32728;DHT22;55292;51.844;19.246;2022-10-16T02:13:58;10.00;99.90
32728;DHT22;55292;51.844;19.246;2022-10-16T02:19:03;10.00;99.90
32728;DHT22;55292;51.844;19.246;2022-10-16T02:24:12;10.10;99.90
32728;DHT22;55292;51.844;19.246;2022-10-16T02:29:17;10.20;99.90
32728;DHT22;55292;51.844;19.246;2022-10-16T02:34:21;10.40;99.90
32728;DHT22;55292;51.844;19.246;2022-10-16T02:39:24;10.70;99.90
32728;DHT22;55292;51.844;19.246;2022-10-16T02:44:27;10.90;99.90
32728;DHT22;55292;51.844;19.246;2022-10-16T02:49:29;11.10;99.90
32728;DHT22;55292;51.844;19.246;2022-10-16T02:54:31;11.20;99.90
32728;DHT22;55292;51.844;19.246;2022-10-16T02:59:33;11.30;99.90
32728;DHT22;55292;51.844;19.246;2022-10-16T03:04:36;11.50;99.90
32728;DHT22;55292;51.844;19.246;2022-10-16T03:09:38;11.70;99.90
32728;DHT22;55292;51.844;19.246;2022-10-16T03:14:41;11.90;99.90
32728;DHT22;55292;51.844;19.246;2022-10-16T03:19:43;12.00;99.90
32728;DHT22;55292;51.844;19.246;2022-10-16T03:24:45;12.10;99.90
32728;DHT22;55292;51.844;19.246;2022-10-16T03:29:48;12.20;99.90
32728;DHT22;55292;51.844;19.246;2022-10-16T03:34:50;12.30;99.90
32728;DHT22;55292;51.844;19.246;2022-10-16T03:39:52;12.30;99.90
32728;DHT22;55292;51.844;19.246;2022-10-16T03:44:55;12.30;99.90
32728;DHT22;55292;51.844;19.246;2022-10-16T03:49:57;12.40;99.90
32728;DHT22;55292;51.844;19.246;2022-10-16T03:55:00;12.40;99.90
32728;DHT22;55292;51.844;19.246;2022-10-16T04:00:03;12.40;99.90
32728;DHT22;55292;51.844;19.246;2022-10-16T04:05:12;12.40;99.90
32728;DHT22;55292;51.844;19.246;2022-10-16T04:10:15;12.50;99.90
32728;DHT22;55292;51.844;19.246;2022-10-16T04:15:17;12.50;99.90
32728;DHT22;55292;51.844;19.246;2022-10-16T04:20:20;12.40;99.90
32728;DHT22;55292;51.844;19.246;2022-10-16T04:25:22;12.50;99.90
32728;DHT22;55292;51.844;19.246;2022-10-16T04:30:24;12.40;99.90
32728;DHT22;55292;51.844;19.246;2022-10-16T04:35:27;12.50;99.90
32728;DHT22;55292;51.844;19.246;2022-10-16T04:40:29;12.50;99.90
32728;DHT22;55292;51.844;19.246;2022-10-16T04:45:34;12.40;99.90
32728;DHT22;55292;51.844;19.246;2022-10-16T04:50:37;12.50;99.90
32728;DHT22;55292;51.844;19.246;2022-10-16T04:55:42;12.50;99.90
32728;DHT22;55292;51.844;19.246;2022-10-16T05:00:44;12.60;99.90
32728;DHT22;55292;51.844;19.246;2022-10-16T05:05:48;12.50;99.90
32728;DHT22;55292;51.844;19.246;2022-10-16T05:10:50;12.50;99.90
32728;DHT22;55292;51.844;19.246;2022-10-16T05:15:53;12.50;99.90
32728;DHT22;55292;51.844;19.246;2022-10-16T05:20:55;12.50;99.90
32728;DHT22;55292;51.844;19.246;2022-10-16T05:25:58;12.50;99.90
32728;DHT22;55292;51.844;19.246;2022-10-16T05:31:05;12.50;99.90
32728;DHT22;55292;51.844;19.246;2022-10-16T05:36:08;12.60;99.90
32728;DHT22;55292;51.844;19.246;2022-10-16T05:41:11;12.60;99.90
32728;DHT22;55292;51.844;19.246;2022-10-16T05:46:14;12.60;99.90
32728;DHT22;55292;51.844;19.246;2022-10-16T05:51:16;12.70;99.90
32728;DHT22;55292;51.844;19.246;2022-10-16T05:56:18;12.70;99.90
32728;DHT22;55292;51.844;19.246;2022-10-16T06:01:21;12.70;99.90
32728;DHT22;55292;51.844;19.246;2022-10-16T06:06:26;12.80;99.90
32728;DHT22;55292;51.844;19.246;2022-10-16T06:11:30;12.90;99.90
32728;DHT22;55292;51.844;19.246;2022-10-16T06:16:33;13.20;99.90
32728;DHT22;55292;51.844;19.246;2022-10-16T06:21:36;13.50;99.90
32728;DHT22;55292;51.844;19.246;2022-10-16T06:26:38;13.80;99.90
32728;DHT22;55292;51.844;19.246;2022-10-16T06:31:41;14.30;99.90
32728;DHT22;55292;51.844;19.246;2022-10-16T06:36:43;14.70;99.90
32728;DHT22;55292;51.844;19.246;2022-10-16T06:41:46;15.00;99.90
32728;DHT22;55292;51.844;19.246;2022-10-16T06:46:58;14.90;99.90
32728;DHT22;55292;51.844;19.246;2022-10-16T06:52:01;14.50;99.90
32728;DHT22;55292;51.844;19.246;2022-10-16T06:57:03;14.40;99.90
32728;DHT22;55292;51.844;19.246;2022-10-16T07:02:06;14.30;99.90
32728;DHT22;55292;51.844;19.246;2022-10-16T07:07:10;14.20;99.90
32728;DHT22;55292;51.844;19.246;2022-10-16T07:12:12;14.60;99.90
32728;DHT22;55292;51.844;19.246;2022-10-16T07:17:15;15.00;99.90
32728;DHT22;55292;51.844;19.246;2022-10-16T07:22:17;15.20;99.90
32728;DHT22;55292;51.844;19.246;2022-10-16T07:27:19;15.40;99.90
32728;DHT22;55292;51.844;19.246;2022-10-16T07:32:24;15.60;99.90
32728;DHT22;55292;51.844;19.246;2022-10-16T07:37:28;15.80;99.90
32728;DHT22;55292;51.844;19.246;2022-10-16T07:42:30;16.00;99.90
32728;DHT22;55292;51.844;19.246;2022-10-16T07:47:33;16.00;99.90
32728;DHT22;55292;51.844;19.246;2022-10-16T07:52:35;16.10;99.90
32728;DHT22;55292;51.844;19.246;2022-10-16T07:57:38;16.20;99.90
32728;DHT22;55292;51.844;19.246;2022-10-16T08:02:40;16.40;99.90
32728;DHT22;55292;51.844;19.246;2022-10-16T08:07:42;16.50;99.90
32728;DHT22;55292;51.844;19.246;2022-10-16T08:12:45;16.70;99.90
32728;DHT22;55292;51.844;19.246;2022-10-16T08:17:57;16.90;99.90
32728;DHT22;55292;51.844;19.246;2022-10-16T08:23:00;16.90;99.90
32728;DHT22;55292;51.844;19.246;2022-10-16T08:28:03;17.00;99.90
32728;DHT22;55292;51.844;19.246;2022-10-16T08:33:06;17.10;99.90
32728;DHT22;55292;51.844;19.246;2022-10-16T08:38:09;16.90;99.90
32728;DHT22;55292;51.844;19.246;2022-10-16T08:48:36;16.80;99.90
32728;DHT22;55292;51.844;19.246;2022-10-16T08:53:46;16.70;99.90
32728;DHT22;55292;51.844;19.246;2022-10-16T08:58:51;16.90;99.90
32728;DHT22;55292;51.844;19.246;2022-10-16T09:19:51;17.30;99.90
32728;DHT22;55292;51.844;19.246;2022-10-16T09:24:57;17.50;99.90
32728;DHT22;55292;51.844;19.246;2022-10-16T09:30:01;17.60;99.90
32728;DHT22;55292;51.844;19.246;2022-10-16T09:35:04;17.70;99.90
32728;DHT22;55292;51.844;19.246;2022-10-16T09:40:07;18.00;99.90
32728;DHT22;55292;51.844;19.246;2022-10-16T09:45:19;18.20;99.90
32728;DHT22;55292;51.844;19.246;2022-10-16T09:50:26;18.00;99.90
32728;DHT22;55292;51.844;19.246;2022-10-16T09:55:29;18.10;99.90
32728;DHT22;55292;51.844;19.246;2022-10-16T10:00:31;18.30;99.90
32728;DHT22;55292;51.844;19.246;2022-10-16T10:05:34;18.50;99.90
32728;DHT22;55292;51.844;19.246;2022-10-16T10:10:41;18.30;99.90
32728;DHT22;55292;51.844;19.246;2022-10-16T10:15:43;18.40;99.90
32728;DHT22;55292;51.844;19.246;2022-10-16T10:20:46;18.60;99.90
32728;DHT22;55292;51.844;19.246;2022-10-16T10:46:45;18.90;99.90
32728;DHT22;55292;51.844;19.246;2022-10-16T11:07:33;19.10;99.90
32728;DHT22;55292;51.844;19.246;2022-10-16T11:12:38;19.50;99.90
32728;DHT22;55292;51.844;19.246;2022-10-16T11:23:00;19.60;99.90
32728;DHT22;55292;51.844;19.246;2022-10-16T11:28:20;19.70;99.90
32728;DHT22;55292;51.844;19.246;2022-10-16T11:33:36;20.10;99.90
32728;DHT22;55292;51.844;19.246;2022-10-16T11:43:50;20.10;99.90
32728;DHT22;55292;51.844;19.246;2022-10-16T11:48:57;19.90;99.90
32728;DHT22;55292;51.844;19.246;2022-10-16T11:59:12;19.90;99.90
32728;DHT22;55292;51.844;19.246;2022-10-16T12:04:27;19.90;99.90
32728;DHT22;55292;51.844;19.246;2022-10-16T12:09:30;19.60;99.90
32728;DHT22;55292;51.844;19.246;2022-10-16T12:14:34;19.30;99.90
32728;DHT22;55292;51.844;19.246;2022-10-16T12:25:20;19.50;99.90
32728;DHT22;55292;51.844;19.246;2022-10-16T12:30:23;19.70;99.90
32728;DHT22;55292;51.844;19.246;2022-10-16T12:35:30;19.90;99.90
32728;DHT22;55292;51.844;19.246;2022-10-16T12:40:34;19.90;99.90
32728;DHT22;55292;51.844;19.246;2022-10-16T12:45:38;19.80;99.90
32728;DHT22;55292;51.844;19.246;2022-10-16T12:50:40;19.80;99.90
32728;DHT22;55292;51.844;19.246;2022-10-16T12:55:48;19.60;99.90
32728;DHT22;55292;51.844;19.246;2022-10-16T13:01:03;19.40;99.90
32728;DHT22;55292;51.844;19.246;2022-10-16T13:32:06;19.30;99.90
32728;DHT22;55292;51.844;19.246;2022-10-16T13:37:16;19.20;99.90
32728;DHT22;55292;51.844;19.246;2022-10-16T13:42:26;19.10;99.90
32728;DHT22;55292;51.844;19.246;2022-10-16T13:47:29;19.00;99.90
32728;DHT22;55292;51.844;19.246;2022-10-16T13:52:32;19.00;99.90
32728;DHT22;55292;51.844;19.246;2022-10-16T13:57:34;18.90;99.90
32728;DHT22;55292;51.844;19.246;2022-10-16T14:02:37;18.70;99.90
32728;DHT22;55292;51.844;19.246;2022-10-16T14:07:41;18.60;99.90
32728;DHT22;55292;51.844;19.246;2022-10-16T14:12:44;18.60;99.90
32728;DHT22;55292;51.844;19.246;2022-10-16T14:17:48;18.60;99.90
32728;DHT22;55292;51.844;19.246;2022-10-16T14:23:03;18.50;99.90
32728;DHT22;55292;51.844;19.246;2022-10-16T14:28:21;18.30;99.90
32728;DHT22;55292;51.844;19.246;2022-10-16T14:33:25;18.30;99.90
32728;DHT22;55292;51.844;19.246;2022-10-16T14:38:33;18.20;99.90
32728;DHT22;55292;51.844;19.246;2022-10-16T14:43:40;18.20;99.90
32728;DHT22;55292;51.844;19.246;2022-10-16T14:48:43;18.10;99.90
32728;DHT22;55292;51.844;19.246;2022-10-16T14:53:49;18.00;99.90
32728;DHT22;55292;51.844;19.246;2022-10-16T14:58:51;17.90;99.90
32728;DHT22;55292;51.844;19.246;2022-10-16T15:03:54;17.80;99.90
32728;DHT22;55292;51.844;19.246;2022-10-16T15:08:57;17.70;99.90
32728;DHT22;55292;51.844;19.246;2022-10-16T15:14:00;17.50;99.90
32728;DHT22;55292;51.844;19.246;2022-10-16T15:19:03;18.70;99.90
32728;DHT22;55292;51.844;19.246;2022-10-16T15:24:07;17.30;99.90
32728;DHT22;55292;51.844;19.246;2022-10-16T15:29:11;17.30;99.90
32728;DHT22;55292;51.844;19.246;2022-10-16T15:34:14;17.20;99.90
32728;DHT22;55292;51.844;19.246;2022-10-16T15:39:17;17.10;99.90
32728;DHT22;55292;51.844;19.246;2022-10-16T15:44:20;17.00;99.90
32728;DHT22;55292;51.844;19.246;2022-10-16T15:49:24;16.90;99.90
32728;DHT22;55292;51.844;19.246;2022-10-16T15:54:27;16.80;99.90
32728;DHT22;55292;51.844;19.246;2022-10-16T15:59:29;16.60;99.90
32728;DHT22;55292;51.844;19.246;2022-10-16T16:04:33;16.30;99.90
32728;DHT22;55292;51.844;19.246;2022-10-16T16:09:51;16.10;99.90
32728;DHT22;55292;51.844;19.246;2022-10-16T16:14:53;15.90;99.90
32728;DHT22;55292;51.844;19.246;2022-10-16T16:19:55;15.70;99.90
32728;DHT22;55292;51.844;19.246;2022-10-16T16:24:58;15.60;99.90
32728;DHT22;55292;51.844;19.246;2022-10-16T16:30:00;15.50;99.90
32728;DHT22;55292;51.844;19.246;2022-10-16T16:35:03;15.50;99.90
32728;DHT22;55292;51.844;19.246;2022-10-16T16:40:07;15.40;99.90
32728;DHT22;55292;51.844;19.246;2022-10-16T16:45:09;15.30;99.90
32728;DHT22;55292;51.844;19.246;2022-10-16T16:50:11;15.30;99.90
32728;DHT22;55292;51.844;19.246;2022-10-16T16:55:14;15.10;99.90
32728;DHT22;55292;51.844;19.246;2022-10-16T17:00:16;15.10;99.90
32728;DHT22;55292;51.844;19.246;2022-10-16T17:05:19;15.20;99.90
32728;DHT22;55292;51.844;19.246;2022-10-16T17:10:22;15.20;99.90
32728;DHT22;55292;51.844;19.246;2022-10-16T17:15:24;15.10;99.90
32728;DHT22;55292;51.844;19.246;2022-10-16T17:20:27;15.10;99.90
32728;DHT22;55292;51.844;19.246;2022-10-16T17:25:29;15.20;99.90
32728;DHT22;55292;51.844;19.246;2022-10-16T17:30:35;15.20;99.90
32728;DHT22;55292;51.844;19.246;2022-10-16T17:35:42;15.20;99.90
32728;DHT22;55292;51.844;19.246;2022-10-16T17:40:45;15.00;99.90
32728;DHT22;55292;51.844;19.246;2022-10-16T17:45:47;14.70;99.90
32728;DHT22;55292;51.844;19.246;2022-10-16T17:50:49;14.60;99.90
32728;DHT22;55292;51.844;19.246;2022-10-16T17:55:55;14.40;99.90
32728;DHT22;55292;51.844;19.246;2022-10-16T18:01:13;14.40;99.90
32728;DHT22;55292;51.844;19.246;2022-10-16T18:06:16;14.30;99.90
32728;DHT22;55292;51.844;19.246;2022-10-16T18:11:24;14.50;99.90
32728;DHT22;55292;51.844;19.246;2022-10-16T18:16:27;14.10;99.90
32728;DHT22;55292;51.844;19.246;2022-10-16T18:21:30;13.60;99.90
32728;DHT22;55292;51.844;19.246;2022-10-16T18:26:32;13.50;99.90
32728;DHT22;55292;51.844;19.246;2022-10-16T18:31:35;13.30;99.90
32728;DHT22;55292;51.844;19.246;2022-10-16T18:36:43;13.10;99.90
32728;DHT22;55292;51.844;19.246;2022-10-16T18:41:45;13.20;99.90
32728;DHT22;55292;51.844;19.246;2022-10-16T18:46:49;13.20;99.90
32728;DHT22;55292;51.844;19.246;2022-10-16T18:51:53;13.20;99.90
32728;DHT22;55292;51.844;19.246;2022-10-16T18:56:57;13.10;99.90
32728;DHT22;55292;51.844;19.246;2022-10-16T19:02:00;12.80;99.90
32728;DHT22;55292;51.844;19.246;2022-10-16T19:07:02;12.80;99.90
32728;DHT22;55292;51.844;19.246;2022-10-16T19:12:05;12.80;99.90
32728;DHT22;55292;51.844;19.246;2022-10-16T19:17:08;12.70;99.90
32728;DHT22;55292;51.844;19.246;2022-10-16T19:22:11;12.20;99.90
32728;DHT22;55292;51.844;19.246;2022-10-16T19:27:15;11.60;99.90
32728;DHT22;55292;51.844;19.246;2022-10-16T19:32:17;11.80;99.90
32728;DHT22;55292;51.844;19.246;2022-10-16T19:37:20;11.90;99.90
32728;DHT22;55292;51.844;19.246;2022-10-16T19:42:26;12.20;99.90
32728;DHT22;55292;51.844;19.246;2022-10-16T19:47:32;12.50;99.90
32728;DHT22;55292;51.844;19.246;2022-10-16T19:52:38;12.60;99.90
32728;DHT22;55292;51.844;19.246;2022-10-16T19:57:40;12.50;99.90
32728;DHT22;55292;51.844;19.246;2022-10-16T20:02:43;12.40;99.90
32728;DHT22;55292;51.844;19.246;2022-10-16T20:07:45;12.60;99.90
32728;DHT22;55292;51.844;19.246;2022-10-16T20:12:47;12.90;99.90
32728;DHT22;55292;51.844;19.246;2022-10-16T20:17:50;13.30;99.90
32728;DHT22;55292;51.844;19.246;2022-10-16T20:26:35;13.30;99.90
32728;DHT22;55292;51.844;19.246;2022-10-16T20:31:39;13.50;99.90
32728;DHT22;55292;51.844;19.246;2022-10-16T20:36:41;13.60;99.90
32728;DHT22;55292;51.844;19.246;2022-10-16T20:41:46;13.50;99.90
32728;DHT22;55292;51.844;19.246;2022-10-16T20:46:49;13.40;99.90
32728;DHT22;55292;51.844;19.246;2022-10-16T20:51:51;13.30;99.90
32728;DHT22;55292;51.844;19.246;2022-10-16T20:56:53;13.10;99.90
32728;DHT22;55292;51.844;19.246;2022-10-16T21:01:56;13.10;99.90
32728;DHT22;55292;51.844;19.246;2022-10-16T21:06:59;13.00;99.90
32728;DHT22;55292;51.844;19.246;2022-10-16T21:12:01;13.10;99.90
32728;DHT22;55292;51.844;19.246;2022-10-16T21:17:04;13.10;99.90
32728;DHT22;55292;51.844;19.246;2022-10-16T21:22:06;13.10;99.90
32728;DHT22;55292;51.844;19.246;2022-10-16T21:27:09;13.00;99.90
32728;DHT22;55292;51.844;19.246;2022-10-16T21:32:12;12.80;99.90
32728;DHT22;55292;51.844;19.246;2022-10-16T21:37:14;12.80;99.90
32728;DHT22;55292;51.844;19.246;2022-10-16T21:42:16;12.80;99.90
32728;DHT22;55292;51.844;19.246;2022-10-16T21:47:19;12.70;99.90
32728;DHT22;55292;51.844;19.246;2022-10-16T21:52:21;12.50;99.90
32728;DHT22;55292;51.844;19.246;2022-10-16T21:57:24;12.40;99.90
32728;DHT22;55292;51.844;19.246;2022-10-16T22:02:27;12.30;99.90
32728;DHT22;55292;51.844;19.246;2022-10-16T22:07:29;12.30;99.90
32728;DHT22;55292;51.844;19.246;2022-10-16T22:12:32;12.30;99.90
32728;DHT22;55292;51.844;19.246;2022-10-16T22:17:34;12.30;99.90
32728;DHT22;55292;51.844;19.246;2022-10-16T22:22:37;12.30;99.90
32728;DHT22;55292;51.844;19.246;2022-10-16T22:27:40;12.40;99.90
32728;DHT22;55292;51.844;19.246;2022-10-16T22:32:42;12.50;99.90
32728;DHT22;55292;51.844;19.246;2022-10-16T22:37:45;12.60;99.90
32728;DHT22;55292;51.844;19.246;2022-10-16T22:42:48;12.60;99.90
32728;DHT22;55292;51.844;19.246;2022-10-16T22:47:51;12.60;99.90
32728;DHT22;55292;51.844;19.246;2022-10-16T22:52:54;12.70;99.90
32728;DHT22;55292;51.844;19.246;2022-10-16T22:57:57;12.80;99.90
32728;DHT22;55292;51.844;19.246;2022-10-16T23:02:59;13.00;99.90
32728;DHT22;55292;51.844;19.246;2022-10-16T23:08:02;13.00;99.90
32728;DHT22;55292;51.844;19.246;2022-10-16T23:13:05;12.90;99.90
32728;DHT22;55292;51.844;19.246;2022-10-16T23:18:08;13.00;99.90
32728;DHT22;55292;51.844;19.246;2022-10-16T23:23:11;13.10;99.90
32728;DHT22;55292;51.844;19.246;2022-10-16T23:28:14;13.00;99.90
32728;DHT22;55292;51.844;19.246;2022-10-16T23:33:21;12.80;99.90
32728;DHT22;55292;51.844;19.246;2022-10-16T23:38:24;12.50;99.90
32728;DHT22;55292;51.844;19.246;2022-10-16T23:43:27;12.30;99.90
32728;DHT22;55292;51.844;19.246;2022-10-16T23:48:29;12.40;99.90
32728;DHT22;55292;51.844;19.246;2022-10-16T23:53:32;12.70;99.90
32728;DHT22;55292;51.844;19.246;2022-10-16T23:58:35;12.80;99.90
